createdAt,value
2023-01-05T00:01:44.096Z,23.25
2023-01-05T00:04:12.141Z,2.38
2023-01-05T00:06:40.344Z,7.40
2023-01-05T00:09:11.357Z,3.92
2023-01-05T00:11:57.536Z,6.55
2023-01-05T00:14:47.793Z,6.68
2023-01-05T00:17:38.773Z,3.00
2023-01-05T00:20:26.477Z,6.68
2023-01-05T00:22:55.143Z,4.15
2023-01-05T00:25:24.201Z,20.65
2023-01-05T00:27:54.271Z,3.35
2023-01-05T00:30:36.664Z,2.25
2023-01-05T00:33:04.497Z,8.43
2023-01-05T00:35:32.262Z,2.83
2023-01-05T00:38:00.123Z,5.13
2023-01-05T00:40:30.421Z,15.45
2023-01-05T00:42:58.320Z,6.97
2023-01-05T00:45:27.293Z,3.35
2023-01-05T00:47:57.646Z,3.25
2023-01-05T00:50:25.535Z,4.68
2023-01-05T00:52:53.352Z,3.60
2023-01-05T00:55:21.178Z,3.30
2023-01-05T00:57:51.863Z,2.33
2023-01-05T01:00:20.680Z,3.35
2023-01-05T01:02:49.059Z,6.22
2023-01-05T01:05:19.862Z,3.15
2023-01-05T01:07:49.908Z,4.80
2023-01-05T01:10:19.892Z,1.42
2023-01-05T01:12:49.887Z,3.35
2023-01-05T01:15:17.770Z,6.28
2023-01-05T01:17:48.116Z,6.88
2023-01-05T01:20:15.969Z,2.38
2023-01-05T01:22:43.795Z,3.50
2023-01-05T01:25:14.045Z,9.55
2023-01-05T01:27:41.741Z,2.65
2023-01-05T01:30:10.031Z,4.63
2023-01-05T01:32:37.866Z,3.70
2023-01-05T01:35:11.858Z,2.85
2023-01-05T01:37:39.669Z,3.63
2023-01-05T01:40:14.402Z,2.58
2023-01-05T01:42:42.419Z,6.30
2023-01-05T01:45:21.387Z,7.25
2023-01-05T01:47:57.405Z,5.45
2023-01-05T01:50:42.120Z,9.40
2023-01-05T01:53:16.623Z,8.02
2023-01-05T01:55:44.956Z,2.38
2023-01-05T01:58:15.316Z,6.28
2023-01-05T02:00:44.278Z,11.50
2023-01-05T02:03:12.085Z,4.95
2023-01-05T02:05:40.577Z,8.02
2023-01-05T02:08:17.130Z,12.70
2023-01-05T02:11:07.134Z,3.70
2023-01-05T02:13:44.089Z,9.25
2023-01-05T02:16:40.223Z,2.75
2023-01-05T02:19:29.405Z,5.38
2023-01-05T02:22:29.212Z,2.42
2023-01-05T02:25:11.561Z,3.15
2023-01-05T02:27:45.480Z,4.63
2023-01-05T02:30:50.850Z,7.72
2023-01-05T02:33:22.278Z,5.15
2023-01-05T02:35:58.345Z,2.83
2023-01-05T02:38:41.126Z,5.35
2023-01-05T02:41:20.164Z,3.13
2023-01-05T02:43:48.061Z,5.93
2023-01-05T02:46:18.471Z,4.55
2023-01-05T02:48:47.184Z,2.25
2023-01-05T02:51:21.302Z,2.45
2023-01-05T02:54:00.384Z,3.15
2023-01-05T02:56:46.639Z,5.47
2023-01-05T02:59:19.947Z,0.90
2023-01-05T03:02:02.315Z,1.50
2023-01-05T03:04:42.349Z,3.00
2023-01-05T03:07:12.696Z,1.13
2023-01-05T03:09:41.035Z,2.50
2023-01-05T03:12:30.365Z,5.50
2023-01-05T03:15:21.361Z,2.47
2023-01-05T03:18:11.108Z,2.35
2023-01-05T03:20:41.552Z,1.15
2023-01-05T03:23:30.883Z,1.90
2023-01-05T03:26:17.393Z,3.03
2023-01-05T03:29:07.851Z,1.45
2023-01-05T03:32:01.761Z,4.00
2023-01-05T03:35:22.622Z,4.32
2023-01-05T03:38:06.705Z,3.47
2023-01-05T03:40:36.067Z,4.65
2023-01-05T03:43:04.278Z,3.53
2023-01-05T03:45:42.314Z,1.25
2023-01-05T03:48:10.461Z,11.57
2023-01-05T03:50:38.560Z,3.53
2023-01-05T03:53:08.105Z,9.13
2023-01-05T03:55:38.482Z,5.07
2023-01-05T03:58:07.454Z,10.10
2023-01-05T04:00:35.321Z,5.45
2023-01-05T04:03:04.288Z,4.07
2023-01-05T04:05:32.422Z,9.43
2023-01-05T04:08:00.444Z,8.82
2023-01-05T04:10:28.376Z,5.32
2023-01-05T04:12:56.472Z,3.30
2023-01-05T04:15:24.860Z,3.85
2023-01-05T04:17:52.632Z,7.05
2023-01-05T04:20:22.743Z,4.18
2023-01-05T04:22:50.558Z,4.50
2023-01-05T04:25:18.228Z,4.93
2023-01-05T04:27:46.023Z,2.30
2023-01-05T04:30:14.225Z,8.80
2023-01-05T04:32:42.126Z,13.07
2023-01-05T04:35:11.484Z,6.53
2023-01-05T04:37:39.799Z,13.30
2023-01-05T04:40:07.933Z,6.18
2023-01-05T04:42:41.039Z,9.60
2023-01-05T04:45:09.084Z,5.15
2023-01-05T04:47:37.142Z,6.68
2023-01-05T04:50:05.558Z,5.60
2023-01-05T04:52:33.386Z,3.03
2023-01-05T04:55:01.266Z,5.68
2023-01-05T04:57:29.434Z,5.75
2023-01-05T04:59:57.864Z,3.80
2023-01-05T05:02:25.921Z,6.88
2023-01-05T05:04:53.883Z,2.22
2023-01-05T05:07:21.767Z,1.90
2023-01-05T05:09:50.088Z,6.38
2023-01-05T05:12:20.855Z,5.60
2023-01-05T05:14:49.143Z,6.68
2023-01-05T05:17:18.287Z,9.98
2023-01-05T05:19:46.615Z,16.25
2023-01-05T05:22:14.488Z,5.18
2023-01-05T05:24:42.211Z,3.00
2023-01-05T05:27:10.157Z,8.10
2023-01-05T05:29:38.179Z,8.63
2023-01-05T05:32:06.644Z,5.80
2023-01-05T05:34:34.489Z,13.43
2023-01-05T05:37:02.338Z,3.65
2023-01-05T05:39:30.224Z,2.58
2023-01-05T05:41:58.040Z,17.00
2023-01-05T05:44:25.833Z,5.80
2023-01-05T05:46:55.843Z,23.08
2023-01-05T05:49:24.212Z,10.77
2023-01-05T05:51:54.454Z,12.00
2023-01-05T05:56:50.005Z,22.05
2023-01-05T05:59:20.087Z,17.38
2023-01-05T06:01:48.048Z,27.98
2023-01-05T06:04:15.901Z,9.95
2023-01-05T06:06:43.755Z,29.20
2023-01-05T06:09:11.688Z,62.28
2023-01-05T06:11:42.302Z,21.88
2023-01-05T06:14:10.171Z,11.98
2023-01-05T06:16:38.103Z,18.88
2023-01-05T06:19:06.129Z,22.80
2023-01-05T06:21:35.186Z,18.83
2023-01-05T06:24:05.505Z,15.77
2023-01-05T06:29:08.440Z,28.42
2023-01-05T06:31:37.178Z,16.00
2023-01-05T06:34:07.549Z,14.35
2023-01-05T06:36:35.841Z,37.42
2023-01-05T06:39:05.670Z,23.00
2023-01-05T06:41:35.535Z,95.70
2023-01-05T06:44:05.689Z,56.30
2023-01-05T06:46:33.727Z,30.52
2023-01-05T06:49:01.619Z,23.15
2023-01-05T06:51:29.742Z,41.10
2023-01-05T06:53:57.820Z,10.90
2023-01-05T06:56:27.888Z,25.17
2023-01-05T06:58:56.732Z,54.95
2023-01-05T07:01:25.102Z,33.67
2023-01-05T07:03:53.190Z,21.77
2023-01-05T07:06:21.349Z,13.63
2023-01-05T07:08:50.160Z,44.00
2023-01-05T07:11:18.064Z,21.52
2023-01-05T07:13:51.964Z,36.33
2023-01-05T07:16:20.316Z,92.50
2023-01-05T07:18:48.376Z,76.88
2023-01-05T07:21:16.329Z,86.78
2023-01-05T07:23:44.548Z,64.53
2023-01-05T07:26:13.185Z,97.53
2023-01-05T07:28:41.689Z,36.45
2023-01-05T07:31:09.832Z,57.65
2023-01-05T07:33:39.878Z,23.30
2023-01-05T07:36:08.662Z,42.92
2023-01-05T07:38:39.341Z,25.77
2023-01-05T07:41:07.996Z,20.45
2023-01-05T07:43:38.979Z,40.67
2023-01-05T07:46:10.460Z,28.73
2023-01-05T07:48:46.113Z,91.65
2023-01-05T07:51:23.955Z,35.80
2023-01-05T07:53:52.098Z,69.38
2023-01-05T07:56:27.533Z,40.03
2023-01-05T07:59:02.890Z,41.75
2023-01-05T08:01:42.753Z,49.40
2023-01-05T08:04:11.642Z,85.07
2023-01-05T08:06:39.719Z,32.80
2023-01-05T08:09:27.543Z,92.78
2023-01-05T08:11:57.802Z,69.25
2023-01-05T08:16:57.447Z,55.42
2023-01-05T08:19:25.426Z,33.58
2023-01-05T08:22:02.016Z,45.90
2023-01-05T08:24:30.544Z,28.92
2023-01-05T08:26:59.569Z,72.75
2023-01-05T08:29:30.383Z,106.50
2023-01-05T08:31:58.849Z,123.85
2023-01-05T08:34:34.267Z,111.80
2023-01-05T08:37:04.228Z,104.30
2023-01-05T08:39:36.126Z,93.70
2023-01-05T08:42:04.153Z,112.60
2023-01-05T08:44:32.049Z,98.18
2023-01-05T08:47:02.726Z,90.70
2023-01-05T08:49:30.564Z,148.30
2023-01-05T08:51:58.974Z,122.22
2023-01-05T08:54:28.810Z,132.27
2023-01-05T08:56:56.782Z,77.50
2023-01-05T08:59:26.974Z,105.22
2023-01-05T09:04:23.487Z,117.68
2023-01-05T09:06:52.123Z,94.32
2023-01-05T09:09:24.538Z,78.55
2023-01-05T09:11:52.484Z,118.32
2023-01-05T09:14:20.851Z,160.93
2023-01-05T09:17:06.287Z,87.43
2023-01-05T09:19:35.325Z,87.20
2023-01-05T09:22:03.517Z,62.67
2023-01-05T09:24:34.307Z,45.65
2023-01-05T09:27:03.932Z,44.20
2023-01-05T09:29:34.175Z,58.58
2023-01-05T09:34:32.939Z,57.60
2023-01-05T09:37:01.523Z,85.25
2023-01-05T09:39:30.216Z,27.05
2023-01-05T09:42:06.502Z,70.93
2023-01-05T09:44:35.628Z,38.78
2023-01-05T09:47:18.798Z,118.00
2023-01-05T09:49:50.658Z,28.38
2023-01-05T09:52:22.613Z,51.00
2023-01-05T09:54:51.494Z,57.13
2023-01-05T09:57:25.766Z,43.00
2023-01-05T09:59:59.115Z,84.80
2023-01-05T10:02:44.734Z,48.33
2023-01-05T10:05:13.776Z,45.53
2023-01-05T10:07:47.121Z,45.45
2023-01-05T10:10:35.028Z,56.47
2023-01-05T10:13:04.563Z,50.10
2023-01-05T10:15:40.738Z,26.00
2023-01-05T10:18:27.391Z,46.75
2023-01-05T10:21:15.769Z,47.85
2023-01-05T10:24:09.825Z,49.17
2023-01-05T10:27:23.505Z,54.92
2023-01-05T10:29:43.459Z,93.78
2023-01-05T10:32:25.522Z,68.72
2023-01-05T10:35:09.245Z,54.17
2023-01-05T10:37:59.066Z,55.28
2023-01-05T10:40:36.980Z,58.67
2023-01-05T10:43:25.460Z,59.28
2023-01-05T10:46:29.848Z,55.80
2023-01-05T10:48:55.538Z,64.50
2023-01-05T10:51:26.579Z,45.58
2023-01-05T10:54:08.666Z,38.80
2023-01-05T10:56:50.662Z,87.95
2023-01-05T10:59:34.120Z,51.03
2023-01-05T11:02:04.304Z,75.22
2023-01-05T11:04:39.209Z,80.40
2023-01-05T11:07:17.058Z,58.35
2023-01-05T11:09:51.419Z,98.28
2023-01-05T11:12:28.194Z,76.57
2023-01-05T11:14:59.327Z,61.47
2023-01-05T11:17:47.028Z,128.73
2023-01-05T11:20:23.013Z,160.25
2023-01-05T11:22:56.713Z,180.90
2023-01-05T11:25:25.582Z,138.43
2023-01-05T11:28:16.717Z,75.88
2023-01-05T11:31:07.052Z,74.82
2023-01-05T11:33:39.747Z,53.92
2023-01-05T11:36:07.935Z,42.90
2023-01-05T11:38:35.832Z,51.95
2023-01-05T11:41:03.903Z,60.55
2023-01-05T11:43:34.721Z,59.85
2023-01-05T11:46:08.038Z,54.70
2023-01-05T11:48:37.041Z,43.60
2023-01-05T11:51:04.924Z,45.35
2023-01-05T11:53:37.686Z,51.67
2023-01-05T11:56:08.044Z,44.75
2023-01-05T11:58:44.553Z,49.38
2023-01-05T12:01:53.383Z,36.55
2023-01-05T12:04:39.548Z,65.70
2023-01-05T12:07:16.519Z,54.47
2023-01-05T12:09:55.739Z,47.38
2023-01-05T12:12:52.734Z,51.88
2023-01-05T12:15:30.478Z,35.13
2023-01-05T12:18:25.194Z,54.55
2023-01-05T12:21:12.844Z,47.78
2023-01-05T12:23:56.284Z,46.88
2023-01-05T12:26:36.180Z,43.90
2023-01-05T12:35:26.636Z,29.60
2023-01-05T12:38:14.662Z,57.13
2023-01-05T12:41:13.051Z,50.47
2023-01-05T12:43:51.901Z,60.13
2023-01-05T12:46:54.481Z,34.20
2023-01-05T12:49:26.921Z,54.95
2023-01-05T12:52:10.057Z,64.97
2023-01-05T12:55:13.773Z,128.63
2023-01-05T12:57:54.319Z,79.07
2023-01-05T13:00:22.892Z,80.40
2023-01-05T13:03:00.031Z,48.95
2023-01-05T13:05:53.555Z,46.15
2023-01-05T13:08:21.199Z,58.80
2023-01-05T13:10:56.564Z,79.55
2023-01-05T13:13:38.149Z,51.58
2023-01-05T13:16:31.412Z,71.53
2023-01-05T13:19:06.431Z,107.22
2023-01-05T13:21:35.358Z,72.15
2023-01-05T13:24:28.122Z,66.60
2023-01-05T13:26:56.101Z,52.28
2023-01-05T13:29:35.660Z,66.22
2023-01-05T13:32:15.569Z,51.28
2023-01-05T13:35:34.828Z,67.22
2023-01-05T13:38:15.513Z,64.60
2023-01-05T13:41:06.590Z,70.22
2023-01-05T13:43:37.792Z,76.47
2023-01-05T13:46:42.669Z,64.10
2023-01-05T13:49:13.615Z,58.50
2023-01-05T13:52:10.991Z,117.75
2023-01-05T13:55:00.521Z,129.13
2023-01-05T13:57:45.275Z,47.58
2023-01-05T14:00:29.738Z,77.50
2023-01-05T14:03:07.444Z,69.75
2023-01-05T14:05:44.512Z,67.00
2023-01-05T14:08:19.658Z,41.28
2023-01-05T14:11:08.962Z,49.00
2023-01-05T14:13:45.369Z,129.65
2023-01-05T14:21:51.689Z,88.55
2023-01-05T14:24:50.032Z,141.43
2023-01-05T14:27:22.213Z,87.45
2023-01-05T14:30:03.487Z,74.43
2023-01-05T14:32:39.246Z,95.90
2023-01-05T14:35:13.175Z,78.80
2023-01-05T14:37:43.920Z,98.13
2023-01-05T14:40:32.451Z,78.18
2023-01-05T14:43:29.266Z,88.13
2023-01-05T14:46:12.229Z,37.55
2023-01-05T14:48:57.846Z,53.65
2023-01-05T14:51:32.593Z,48.05
2023-01-05T14:54:11.204Z,58.67
2023-01-05T14:56:39.126Z,50.85
2023-01-05T14:59:27.486Z,78.38
2023-01-05T15:01:55.267Z,101.07
2023-01-05T15:04:32.329Z,68.40
2023-01-05T15:07:30.945Z,109.45
2023-01-05T15:10:19.567Z,149.75
2023-01-05T15:12:53.728Z,25.20
2023-01-05T15:15:41.845Z,50.17
2023-01-05T15:18:22.273Z,109.93
2023-01-05T15:21:11.017Z,47.53
2023-01-05T15:27:03.935Z,60.00
2023-01-05T15:29:46.386Z,34.85
2023-01-05T15:32:21.377Z,46.97
2023-01-05T15:34:53.885Z,48.65
2023-01-05T15:37:37.183Z,24.45
2023-01-05T15:40:07.747Z,40.35
2023-01-05T15:42:40.907Z,28.48
2023-01-05T15:45:24.020Z,23.05
2023-01-05T15:47:52.656Z,29.42
2023-01-05T15:50:27.778Z,61.00
2023-01-05T15:53:00.384Z,56.33
2023-01-05T15:55:29.515Z,52.65
2023-01-05T15:58:09.108Z,87.63
2023-01-05T16:00:45.800Z,29.08
2023-01-05T16:03:27.397Z,18.92
2023-01-05T16:06:20.463Z,46.65
2023-01-05T16:08:51.752Z,29.10
2023-01-05T16:11:35.452Z,22.27
2023-01-05T16:14:21.904Z,20.15
2023-01-05T16:16:54.860Z,79.22
2023-01-05T16:19:29.523Z,23.10
2023-01-05T16:22:09.924Z,32.33
2023-01-05T16:24:48.721Z,57.40
2023-01-05T16:27:16.599Z,56.60
2023-01-05T16:29:45.725Z,10.30
2023-01-05T16:32:34.064Z,43.92
2023-01-05T16:35:20.365Z,75.30
2023-01-05T16:38:03.537Z,11.57
2023-01-05T16:40:31.967Z,4.45
2023-01-05T16:42:59.762Z,6.85
2023-01-05T16:45:35.857Z,10.50
2023-01-05T16:48:03.794Z,15.73
2023-01-05T16:50:54.987Z,15.10
2023-01-05T16:53:24.564Z,49.33
2023-01-05T16:55:55.098Z,13.63
2023-01-05T16:58:30.946Z,22.10
2023-01-05T17:01:11.639Z,42.58
2023-01-05T17:03:39.424Z,20.08
2023-01-05T17:06:07.419Z,23.50
2023-01-05T17:08:38.698Z,54.85
2023-01-05T17:11:10.569Z,19.42
2023-01-05T17:13:48.419Z,16.88
2023-01-05T17:16:18.032Z,61.15
2023-01-05T17:18:47.458Z,4.72
2023-01-05T17:21:21.315Z,2.65
2023-01-05T17:23:50.991Z,34.47
2023-01-05T17:26:36.036Z,28.98
2023-01-05T17:29:04.611Z,18.10
2023-01-05T17:31:32.467Z,14.65
2023-01-05T17:34:00.414Z,18.13
2023-01-05T17:36:29.857Z,12.13
2023-01-05T17:38:57.988Z,45.28
2023-01-05T17:41:29.164Z,5.40
2023-01-05T17:43:57.617Z,19.40
2023-01-05T17:46:33.300Z,53.65
2023-01-05T17:49:02.276Z,2.78
2023-01-05T17:51:30.939Z,17.40
2023-01-05T17:54:00.367Z,5.05
2023-01-05T17:56:28.231Z,22.40
2023-01-05T17:58:56.477Z,67.35
2023-01-05T18:01:24.915Z,13.65
2023-01-05T18:03:53.376Z,20.73
2023-01-05T18:06:21.122Z,9.73
2023-01-05T18:08:49.012Z,44.85
2023-01-05T18:11:17.793Z,24.23
2023-01-05T18:13:46.353Z,14.20
2023-01-05T18:16:14.156Z,8.43
2023-01-05T18:18:41.967Z,66.05
2023-01-05T18:21:09.655Z,23.27
2023-01-05T18:23:37.426Z,35.80
2023-01-05T18:26:08.753Z,46.83
2023-01-05T18:28:37.011Z,9.57
2023-01-05T18:31:14.726Z,45.53
2023-01-05T18:33:42.268Z,26.55
2023-01-05T18:36:10.984Z,12.55
2023-01-05T18:38:38.768Z,62.88
2023-01-05T18:41:09.920Z,6.57
2023-01-05T18:43:37.851Z,17.48
2023-01-05T18:46:05.850Z,39.30
2023-01-05T18:48:33.587Z,60.28
2023-01-05T18:51:03.437Z,36.58
2023-01-05T18:53:31.097Z,7.43
2023-01-05T18:55:58.814Z,12.13
2023-01-05T18:58:26.600Z,60.92
2023-01-05T19:00:54.070Z,23.88
2023-01-05T19:03:23.377Z,37.72
2023-01-05T19:05:51.071Z,8.00
2023-01-05T19:08:18.824Z,13.65
2023-01-05T19:10:47.025Z,42.20
2023-01-05T19:13:15.761Z,20.88
2023-01-05T19:15:43.685Z,58.55
2023-01-05T19:18:11.340Z,27.85
2023-01-05T19:20:38.910Z,18.52
2023-01-05T19:23:06.430Z,8.43
2023-01-05T19:25:37.193Z,14.63
2023-01-05T19:28:04.756Z,19.25
2023-01-05T19:30:32.315Z,11.93
2023-01-05T19:33:02.357Z,24.08
2023-01-05T19:35:31.229Z,10.45
2023-01-05T19:38:00.556Z,14.68
2023-01-05T19:40:29.161Z,11.40
2023-01-05T19:42:59.083Z,9.82
2023-01-05T19:45:26.911Z,31.85
2023-01-05T19:47:54.566Z,10.90
2023-01-05T19:50:22.173Z,17.63
2023-01-05T19:52:49.892Z,9.43
2023-01-05T19:55:17.705Z,33.65
2023-01-05T19:57:45.357Z,6.53
2023-01-05T20:00:14.008Z,56.83
2023-01-05T20:02:42.248Z,6.22
2023-01-05T20:05:10.164Z,35.55
2023-01-05T20:07:40.445Z,60.40
2023-01-05T20:12:38.821Z,5.53
2023-01-05T20:15:06.596Z,16.17
2023-01-05T20:17:34.434Z,11.65
2023-01-05T20:20:02.155Z,31.92
2023-01-05T20:22:32.383Z,9.38
2023-01-05T20:25:00.136Z,4.28
2023-01-05T20:27:27.873Z,10.68
2023-01-05T20:29:55.727Z,8.93
2023-01-05T20:32:26.722Z,6.57
2023-01-05T20:34:59.306Z,19.45
2023-01-05T20:37:31.557Z,10.40
2023-01-05T20:40:02.349Z,6.28
2023-01-05T20:42:30.680Z,22.40
2023-01-05T20:44:58.441Z,52.72
2023-01-05T20:47:26.215Z,14.18
2023-01-05T20:49:55.081Z,8.80
2023-01-05T20:52:23.105Z,17.73
2023-01-05T20:54:52.677Z,8.80
2023-01-05T20:57:20.426Z,16.60
2023-01-05T20:59:50.612Z,11.77
2023-01-05T21:02:24.363Z,4.95
2023-01-05T21:04:53.196Z,11.55
2023-01-05T21:07:21.054Z,13.95
2023-01-05T21:09:49.563Z,52.50
2023-01-05T21:12:18.407Z,51.05
2023-01-05T21:14:46.433Z,9.25
2023-01-05T21:17:14.279Z,8.93
2023-01-05T21:19:42.090Z,8.43
2023-01-05T21:22:09.863Z,28.33
2023-01-05T21:24:37.656Z,58.63
2023-01-05T21:27:05.914Z,9.57
2023-01-05T21:29:33.789Z,61.92
2023-01-05T21:32:01.447Z,18.15
2023-01-05T21:34:29.139Z,6.97
2023-01-05T21:36:57.332Z,10.70
2023-01-05T21:39:26.013Z,50.75
2023-01-05T21:42:12.913Z,8.98
2023-01-05T21:44:43.052Z,59.15
2023-01-05T21:47:11.361Z,5.22
2023-01-05T21:49:39.104Z,24.42
2023-01-05T21:52:25.512Z,11.07
2023-01-05T21:55:11.753Z,15.23
2023-01-05T21:57:39.764Z,35.42
2023-01-05T22:00:07.912Z,10.30
2023-01-05T22:02:35.928Z,6.25
2023-01-05T22:05:03.663Z,59.92
2023-01-05T22:07:31.411Z,49.10
2023-01-05T22:09:59.195Z,7.97
2023-01-05T22:12:27.616Z,11.27
2023-01-05T22:14:55.313Z,44.22
2023-01-05T22:17:22.965Z,53.10
2023-01-05T22:19:53.422Z,7.63
2023-01-05T22:22:22.254Z,10.38
2023-01-05T22:24:50.541Z,47.53
2023-01-05T22:27:18.395Z,45.28
2023-01-05T22:29:46.053Z,60.90
2023-01-05T22:32:13.853Z,17.05
2023-01-05T22:34:43.935Z,1.52
2023-01-05T22:37:12.104Z,10.73
2023-01-05T22:39:40.002Z,9.32
2023-01-05T22:42:08.104Z,10.00
2023-01-05T22:44:35.748Z,10.40
2023-01-05T22:47:05.887Z,12.25
2023-01-05T22:49:33.694Z,35.90
2023-01-05T22:52:01.623Z,9.55
2023-01-05T22:54:29.738Z,54.63
2023-01-05T22:56:58.373Z,23.75
2023-01-05T22:59:27.875Z,61.63
2023-01-05T23:01:56.517Z,48.45
2023-01-05T23:04:24.638Z,9.88
2023-01-05T23:06:52.509Z,57.88
2023-01-05T23:09:21.519Z,27.25
2023-01-05T23:11:49.804Z,33.50
2023-01-05T23:14:19.316Z,7.05
2023-01-05T23:16:47.700Z,10.65
2023-01-05T23:19:17.053Z,69.93
2023-01-05T23:21:45.328Z,41.55
2023-01-05T23:24:13.119Z,30.80
2023-01-05T23:26:40.925Z,46.97
2023-01-05T23:29:08.653Z,23.33
2023-01-05T23:31:36.781Z,38.10
2023-01-05T23:34:04.608Z,6.05
2023-01-05T23:36:32.242Z,13.75
2023-01-05T23:39:00.305Z,31.85
2023-01-05T23:41:29.241Z,2.15
2023-01-05T23:43:57.025Z,17.08
2023-01-05T23:46:25.546Z,26.25
2023-01-05T23:48:53.416Z,22.17
2023-01-05T23:51:21.299Z,49.58
2023-01-05T23:53:50.339Z,10.30
2023-01-05T23:56:22.358Z,36.78
2023-01-05T23:58:50.302Z,16.95
